Time;durP1;ratioP1;P1;durP2;ratioP2;P2;SDS_P1;SDS_P2;PMS_P1;PMS_P2;Temp;Humidity;BMP_temperature;BMP_pressure;BME280_temperature;BME280_humidity;BME280_pressure;Samples;Min_cycle;Max_cycle;Signal;HPM_P1;HPM_P2
2022/01/23 00:01:05;;;;;;;12.05;5.30;;;5.70;85.60;;;;;;5019187;28;24087;-70
2022/01/23 00:03:42;;;;;;;7.43;3.58;;;5.70;85.80;;;;;;4715220;28;10000999;-70
2022/01/23 00:06:09;;;;;;;7.45;3.22;;;5.70;85.60;;;;;;1043167;28;10002071;-69
2022/01/23 00:08:36;;;;;;;8.45;2.60;;;5.70;85.70;;;;;;5052521;28;20052;-71
2022/01/23 00:11:08;;;;;;;6.95;2.95;;;5.70;85.70;;;;;;5052767;28;20136;-70
2022/01/23 00:17:15;;;;;;;7.90;3.28;;;5.70;85.70;;;;;;5052020;28;20125;-69
2022/01/23 00:19:23;;;;;;;6.18;2.45;;;5.70;85.70;;;;;;5007935;28;20731;-70
2022/01/23 00:21:52;;;;;;;4.22;1.88;;;5.70;85.60;;;;;;5006853;28;20571;-69
2022/01/23 00:32:31;;;;;;;7.30;2.30;;;5.70;85.80;;;;;;5051069;28;20056;-70
2022/01/23 00:34:58;;;;;;;4.53;2.35;;;5.70;85.90;;;;;;5052901;28;20053;-70
2022/01/23 00:37:26;;;;;;;5.70;2.28;;;5.60;85.90;;;;;;5018691;28;20398;-70
2022/01/23 00:39:53;;;;;;;5.20;2.33;;;5.60;85.90;;;;;;5031972;28;20051;-69
2022/01/23 00:42:20;;;;;;;5.40;2.35;;;5.70;85.90;;;;;;5030401;28;20049;-69
2022/01/23 00:44:55;;;;;;;5.45;1.95;;;5.60;85.90;;;;;;5029627;28;20778;-71
2022/01/23 00:47:21;;;;;;;7.55;2.60;;;5.70;85.90;;;;;;5010684;28;21625;-70
2022/01/23 00:49:48;;;;;;;4.53;1.58;;;5.70;85.80;;;;;;5030829;28;20052;-70
2022/01/23 00:52:18;;;;;;;4.68;1.77;;;5.70;85.80;;;;;;5030250;28;20060;-70
2022/01/23 00:54:45;;;;;;;5.55;2.28;;;5.60;85.90;;;;;;5031617;28;20128;-70
2022/01/23 00:57:12;;;;;;;5.35;2.30;;;5.60;85.90;;;;;;5029332;28;20353;-70
2022/01/23 00:59:39;;;;;;;5.63;2.00;;;5.60;86.00;;;;;;5029482;28;21605;-70
2022/01/23 01:02:07;;;;;;;5.88;2.13;;;5.60;86.00;;;;;;5028820;28;20048;-69
2022/01/23 01:04:34;;;;;;;7.47;2.22;;;5.60;85.90;;;;;;5025182;28;20052;-71
2022/01/23 01:07:01;;;;;;;5.75;2.05;;;5.60;85.90;;;;;;5029095;28;20060;-71
2022/01/23 01:09:29;;;;;;;7.30;2.00;;;5.60;85.90;;;;;;5031391;28;20119;-70
2022/01/23 01:12:00;;;;;;;6.05;1.77;;;5.60;85.90;;;;;;5045172;28;20499;-71
2022/01/23 01:17:18;;;;;;;6.47;2.05;;;5.60;85.90;;;;;;5045682;28;20048;-69
2022/01/23 01:31:00;;;;;;;5.35;2.10;;;5.50;86.00;;;;;;5045398;28;20533;-69
2022/01/23 01:33:39;;;;;;;6.93;3.03;;;5.60;86.00;;;;;;5033880;28;20702;-69
2022/01/23 01:36:18;;;;;;;4.13;1.70;;;5.60;85.90;;;;;;5033825;28;20123;-70
2022/01/23 01:38:46;;;;;;;6.15;2.10;;;5.60;85.90;;;;;;5036302;28;20497;-70
2022/01/23 01:41:15;;;;;;;6.25;2.58;;;5.50;86.00;;;;;;5048340;28;20131;-72
2022/01/23 01:43:42;;;;;;;5.72;1.88;;;5.60;86.10;;;;;;5052664;28;20044;-70
2022/01/23 01:46:10;;;;;;;5.20;2.30;;;5.60;86.10;;;;;;5035299;28;20052;-70
2022/01/23 01:48:56;;;;;;;5.45;2.75;;;5.60;86.10;;;;;;5034953;28;20048;-71
2022/01/23 01:51:24;;;;;;;5.25;2.08;;;5.60;86.00;;;;;;5040845;28;20498;-70
2022/01/23 01:54:10;;;;;;;;;;;5.60;86.10;;;;;;5053038;28;20495;-70
2022/01/23 01:56:52;;;;;;;3.17;1.50;;;5.60;86.10;;;;;;4292041;28;10001102;-70
2022/01/23 01:59:48;;;;;;;5.57;2.42;;;5.60;86.10;;;;;;2417664;28;10002143;-70
2022/01/23 02:02:54;;;;;;;5.93;2.60;;;5.60;86.10;;;;;;5029285;28;20055;-70
2022/01/23 02:08:26;;;;;;;8.13;3.47;;;5.50;86.30;;;;;;5041213;28;20053;-71
2022/01/23 02:10:57;;;;;;;8.07;3.95;;;5.60;86.30;;;;;;5047851;28;20044;-70
2022/01/23 02:13:29;;;;;;;10.95;3.97;;;5.50;86.30;;;;;;5046557;28;20418;-70
2022/01/23 02:16:28;;;;;;;7.57;2.88;;;5.50;86.30;;;;;;5046139;28;20049;-69
2022/01/23 02:25:13;;;;;;;7.53;3.35;;;5.50;86.40;;;;;;5032769;28;20514;-70
2022/01/23 02:52:45;;;;;;;5.15;2.33;;;5.40;86.40;;;;;;5033451;28;20077;-71
2022/01/23 02:55:15;;;;;;;4.75;2.05;;;5.30;86.40;;;;;;5029992;28;20041;-69
2022/01/23 02:57:53;;;;;;;4.70;2.10;;;5.30;86.40;;;;;;5025388;28;20146;-70
2022/01/23 03:00:30;;;;;;;7.22;2.45;;;5.30;86.50;;;;;;5040410;28;20076;-69
2022/01/23 03:03:24;;;;;;;6.22;2.63;;;5.30;86.50;;;;;;5028620;28;20605;-70
2022/01/23 03:06:21;;;;;;;7.68;2.70;;;5.30;86.40;;;;;;5026762;28;20056;-70
2022/01/23 03:09:21;;;;;;;8.10;3.47;;;5.40;86.30;;;;;;5036741;28;20143;-69
2022/01/23 03:12:06;;;;;;;6.85;2.60;;;5.40;86.30;;;;;;5049010;28;20520;-69
2022/01/23 03:14:50;;;;;;;7.38;3.22;;;5.40;86.30;;;;;;5050172;28;20049;-70
2022/01/23 03:26:12;;;;;;;8.45;3.15;;;5.30;86.40;;;;;;5041606;28;20056;-70
2022/01/23 03:29:02;;;;;;;6.80;2.88;;;5.30;86.30;;;;;;5045038;28;20059;-70
2022/01/23 03:31:33;;;;;;;4.30;2.10;;;5.30;86.40;;;;;;5044231;28;20044;-69
2022/01/23 03:34:00;;;;;;;6.45;2.45;;;5.20;86.40;;;;;;5044975;28;20055;-71
2022/01/23 03:36:27;;;;;;;7.78;2.88;;;5.20;86.40;;;;;;5025617;28;20055;-71
2022/01/23 03:38:54;;;;;;;6.18;2.58;;;5.30;86.30;;;;;;5045666;28;20044;-71
2022/01/23 03:41:21;;;;;;;7.68;3.05;;;5.20;86.50;;;;;;5021662;28;20453;-70
2022/01/23 03:43:50;;;;;;;5.63;2.55;;;5.30;86.50;;;;;;5027729;28;22455;-69
2022/01/23 03:46:34;;;;;;;6.15;2.53;;;5.30;86.50;;;;;;5025065;28;20106;-70
2022/01/23 03:52:18;;;;;;;4.32;1.92;;;5.30;86.40;;;;;;4961220;28;20093;-69
2022/01/23 03:54:46;;;;;;;7.35;2.40;;;5.30;86.30;;;;;;4959474;28;20053;-71
2022/01/23 03:57:13;;;;;;;5.30;1.95;;;5.30;86.40;;;;;;5015576;28;20048;-71
2022/01/23 03:59:43;;;;;;;3.97;1.48;;;5.20;86.40;;;;;;5044999;28;20049;-71
2022/01/23 04:02:11;;;;;;;4.93;1.90;;;5.30;86.50;;;;;;4991650;28;20198;-71
2022/01/23 04:04:56;;;;;;;3.78;1.36;;;5.20;86.40;;;;;;4468172;28;10000766;-70
2022/01/23 04:07:27;;;;;;;4.05;1.70;;;5.20;86.40;;;;;;1388028;28;10002169;-71
2022/01/23 04:09:55;;;;;;;6.35;1.92;;;5.20;86.40;;;;;;5046591;28;20048;-71
2022/01/23 04:12:38;;;;;;;5.97;2.30;;;5.20;86.40;;;;;;5029998;28;20059;-71
2022/01/23 04:15:15;;;;;;;4.97;2.17;;;5.30;86.40;;;;;;5047385;28;20522;-71
2022/01/23 04:20:36;;;;;;;6.78;2.05;;;5.20;86.40;;;;;;5017030;28;20584;-70
2022/01/23 04:34:18;;;;;;;3.45;1.50;;;5.20;86.30;;;;;;5048607;28;20356;-71
2022/01/23 05:01:30;;;;;;;5.90;2.30;;;5.20;86.40;;;;;;5031956;28;20102;-69
2022/01/23 05:04:14;;;;;;;4.10;1.45;;;5.20;86.30;;;;;;5054933;28;20059;-69
2022/01/23 05:07:02;;;;;;;7.25;2.22;;;5.20;86.30;;;;;;5052733;28;20522;-69
2022/01/23 05:09:55;;;;;;;5.68;2.58;;;5.20;86.40;;;;;;5051817;28;20055;-69
2022/01/23 05:12:31;;;;;;;5.60;2.40;;;5.20;86.40;;;;;;5069670;28;20690;-69
2022/01/23 05:14:58;;;;;;;4.90;2.13;;;5.20;86.50;;;;;;5052414;28;20482;-69
2022/01/23 05:17:26;;;;;;;7.40;2.00;;;5.20;86.50;;;;;;5052000;28;20366;-68
2022/01/23 05:19:54;;;;;;;9.48;2.58;;;5.20;86.50;;;;;;5052309;28;20094;-70
2022/01/23 05:22:26;;;;;;;5.38;2.20;;;5.20;86.50;;;;;;5050785;28;20406;-69
2022/01/23 05:24:56;;;;;;;6.25;2.63;;;5.20;86.50;;;;;;5041759;28;20110;-70
2022/01/23 05:27:27;;;;;;;6.82;2.45;;;5.20;86.50;;;;;;5049631;28;20135;-68
2022/01/23 05:29:54;;;;;;;2.92;1.50;;;5.20;86.50;;;;;;5050605;28;20071;-69
2022/01/23 05:32:24;;;;;;;5.13;2.25;;;5.10;86.60;;;;;;5048990;28;20053;-69
2022/01/23 05:34:51;;;;;;;4.53;2.17;;;5.20;86.70;;;;;;5056253;28;20714;-70
2022/01/23 05:37:27;;;;;;;4.18;1.65;;;5.20;86.70;;;;;;5039944;28;20130;-68
2022/01/23 05:39:55;;;;;;;4.60;2.10;;;5.20;86.60;;;;;;5054687;28;20040;-68
2022/01/23 05:42:22;;;;;;;4.82;2.38;;;5.20;86.50;;;;;;5053486;28;20539;-69
2022/01/23 05:44:49;;;;;;;5.93;2.30;;;5.20;86.40;;;;;;5035519;28;20171;-69
2022/01/23 05:47:16;;;;;;;6.70;2.55;;;5.20;86.50;;;;;;5036386;28;20057;-70
2022/01/23 05:49:55;;;;;;;6.28;2.78;;;5.20;86.40;;;;;;5035700;28;20044;-68
2022/01/23 05:52:53;;;;;;;5.55;2.45;;;5.20;86.50;;;;;;4966615;28;20520;-69
2022/01/23 05:55:43;;;;;;;7.57;2.67;;;5.20;86.60;;;;;;5052470;28;20779;-70
2022/01/23 05:58:37;;;;;;;6.32;2.67;;;5.20;86.60;;;;;;5048874;28;20658;-69
2022/01/23 06:01:24;;;;;;;5.40;1.76;;;5.20;86.60;;;;;;4187950;28;10149028;-70
2022/01/23 06:03:53;;;;;;;5.78;2.40;;;5.20;86.60;;;;;;2076884;28;10002026;-69
2022/01/23 06:06:26;;;;;;;6.32;2.22;;;5.20;86.60;;;;;;5027999;28;20342;-68
2022/01/23 06:08:54;;;;;;;7.25;2.95;;;5.20;86.60;;;;;;5013618;28;20049;-68
2022/01/23 06:11:22;;;;;;;7.53;3.38;;;5.20;86.60;;;;;;5028245;28;20550;-69
2022/01/23 06:13:49;;;;;;;14.60;4.03;;;5.20;86.70;;;;;;5049010;28;20152;-70
2022/01/23 06:16:16;;;;;;;6.65;2.63;;;5.10;86.70;;;;;;5034033;28;20506;-69
2022/01/23 06:18:59;;;;;;;5.70;2.38;;;5.20;86.70;;;;;;5030940;28;20175;-70
2022/01/23 06:21:52;;;;;;;6.70;2.72;;;5.20;86.60;;;;;;5034095;28;20045;-70
2022/01/23 06:24:45;;;;;;;4.95;2.17;;;5.20;86.70;;;;;;5034517;28;20060;-69
2022/01/23 06:27:29;;;;;;;9.35;3.35;;;5.10;86.70;;;;;;5034728;28;20208;-68
2022/01/23 06:29:56;;;;;;;4.47;2.15;;;5.20;86.70;;;;;;5033085;28;20091;-70
2022/01/23 06:32:24;;;;;;;4.78;2.45;;;5.20;86.60;;;;;;5040356;28;20158;-69
2022/01/23 06:34:51;;;;;;;6.03;2.17;;;5.20;86.60;;;;;;5054930;28;20082;-69
2022/01/23 06:37:18;;;;;;;5.47;2.38;;;5.20;86.60;;;;;;5052759;28;20045;-69
2022/01/23 06:39:46;;;;;;;4.50;1.83;;;5.20;86.50;;;;;;5035911;28;21928;-69
2022/01/23 06:42:17;;;;;;;4.35;2.00;;;5.20;86.50;;;;;;5035613;28;20063;-68
2022/01/23 06:45:04;;;;;;;4.95;1.95;;;5.20;86.40;;;;;;5034697;28;20060;-69
2022/01/23 06:47:31;;;;;;;4.53;1.70;;;5.20;86.40;;;;;;5051295;28;20141;-70
2022/01/23 06:49:58;;;;;;;6.53;2.20;;;5.20;86.40;;;;;;5041031;28;20055;-69
2022/01/23 06:52:26;;;;;;;4.32;1.50;;;5.20;86.40;;;;;;5045192;28;20473;-69
2022/01/23 06:54:59;;;;;;;4.60;2.38;;;5.20;86.30;;;;;;5034259;28;20044;-69
2022/01/23 06:57:26;;;;;;;4.57;2.00;;;5.20;86.30;;;;;;5036126;28;20850;-68
2022/01/23 06:59:55;;;;;;;4.22;1.75;;;5.10;86.40;;;;;;5046075;28;20170;-70
2022/01/23 07:02:41;;;;;;;4.15;1.30;;;5.10;86.50;;;;;;5053201;28;20615;-70
2022/01/23 07:05:21;;;;;;;4.37;2.10;;;5.20;86.40;;;;;;5030118;28;20041;-70
2022/01/23 07:07:57;;;;;;;6.72;2.65;;;5.10;86.40;;;;;;5022379;28;20475;-70
2022/01/23 07:10:44;;;;;;;5.30;1.95;;;5.20;86.40;;;;;;5052680;28;20598;-70
2022/01/23 07:13:25;;;;;;;5.72;2.67;;;5.10;86.40;;;;;;5051169;28;20109;-70
2022/01/23 07:16:10;;;;;;;7.18;2.35;;;5.20;86.40;;;;;;5046988;28;20075;-70
2022/01/23 07:19:01;;;;;;;5.50;2.50;;;5.20;86.40;;;;;;5037972;28;20135;-69
2022/01/23 07:21:33;;;;;;;5.85;2.53;;;5.10;86.40;;;;;;5027914;28;20044;-69
2022/01/23 07:24:00;;;;;;;5.30;2.40;;;5.10;86.50;;;;;;5042750;28;20506;-69
2022/01/23 07:26:29;;;;;;;5.57;2.38;;;5.20;86.50;;;;;;5026373;28;20048;-70
2022/01/23 07:29:02;;;;;;;6.50;3.00;;;5.20;86.50;;;;;;5012667;28;20056;-70
2022/01/23 07:31:56;;;;;;;4.43;1.92;;;5.20;86.40;;;;;;5026735;28;20070;-68
2022/01/23 07:34:23;;;;;;;7.57;2.53;;;5.20;86.50;;;;;;5026419;28;20055;-70
2022/01/23 07:36:51;;;;;;;7.80;2.40;;;5.20;86.50;;;;;;5041036;28;20122;-69
2022/01/23 07:39:28;;;;;;;7.70;2.90;;;5.20;86.50;;;;;;5055861;28;20055;-69
2022/01/23 07:42:01;;;;;;;4.82;1.85;;;5.20;86.60;;;;;;5039816;28;20181;-69
2022/01/23 07:44:46;;;;;;;9.95;3.17;;;5.20;86.60;;;;;;5045966;28;20098;-69
2022/01/23 07:47:34;;;;;;;6.18;2.72;;;5.20;86.60;;;;;;5030469;28;20125;-69
2022/01/23 07:50:30;;;;;;;5.32;2.58;;;5.20;86.60;;;;;;5019425;28;20561;-70
2022/01/23 07:53:20;;;;;;;6.57;3.50;;;5.20;86.60;;;;;;5023086;28;20052;-70
2022/01/23 07:55:56;;;;;;;6.05;2.97;;;5.30;86.60;;;;;;5042074;28;20315;-69
2022/01/23 07:58:43;;;;;;;6.55;2.92;;;5.20;86.60;;;;;;5046545;28;20494;-70
2022/01/23 08:01:43;;;;;;;5.61;2.46;;;5.20;86.60;;;;;;2528425;28;10280221;-69
2022/01/23 08:04:40;;;;;;;8.75;3.55;;;5.20;86.70;;;;;;4000470;28;10001391;-69
2022/01/23 08:07:11;;;;;;;7.85;3.83;;;5.30;86.70;;;;;;5042052;28;20317;-69
2022/01/23 08:10:11;;;;;;;4.88;2.10;;;5.20;86.90;;;;;;5014126;28;20056;-68
2022/01/23 08:12:39;;;;;;;6.93;3.25;;;5.20;86.90;;;;;;5027695;28;20044;-70
2022/01/23 08:15:08;;;;;;;6.57;3.35;;;5.30;86.90;;;;;;5036591;28;20047;-70
2022/01/23 08:17:35;;;;;;;7.80;3.40;;;5.30;86.90;;;;;;5058998;28;20045;-69
2022/01/23 08:20:04;;;;;;;6.68;2.78;;;5.30;86.90;;;;;;5034040;28;20052;-71
2022/01/23 08:22:33;;;;;;;7.85;3.28;;;5.30;86.90;;;;;;5045324;28;20555;-69
2022/01/23 08:25:02;;;;;;;8.00;2.60;;;5.40;86.80;;;;;;5046807;28;20098;-70
2022/01/23 08:27:29;;;;;;;7.80;3.08;;;5.40;86.80;;;;;;5044018;28;20056;-69
2022/01/23 08:29:57;;;;;;;10.57;4.38;;;5.40;86.80;;;;;;5059752;28;20074;-69
2022/01/23 08:32:27;;;;;;;6.72;2.90;;;5.40;86.70;;;;;;5023834;28;20135;-69
2022/01/23 08:34:54;;;;;;;9.45;3.20;;;5.40;86.70;;;;;;5046357;28;20059;-69
2022/01/23 08:37:21;;;;;;;11.48;3.50;;;5.40;86.80;;;;;;5045861;28;20041;-68
2022/01/23 08:39:48;;;;;;;7.20;2.80;;;5.50;86.80;;;;;;5046288;28;20600;-68
2022/01/23 08:42:17;;;;;;;8.80;3.05;;;5.50;86.80;;;;;;5046339;28;20105;-69
2022/01/23 08:44:45;;;;;;;6.88;3.15;;;5.50;86.70;;;;;;5047900;28;21740;-69
2022/01/23 08:47:12;;;;;;;9.93;3.95;;;5.50;86.70;;;;;;5043604;28;20482;-71
2022/01/23 08:49:45;;;;;;;12.48;5.15;;;5.50;86.70;;;;;;5046226;28;20048;-68
2022/01/23 08:52:15;;;;;;;12.88;5.78;;;5.60;86.70;;;;;;5046313;28;20053;-70
2022/01/23 08:54:42;;;;;;;11.13;4.88;;;5.60;86.80;;;;;;5044934;28;20125;-69
2022/01/23 08:57:09;;;;;;;11.90;6.03;;;5.60;86.80;;;;;;5044207;28;20152;-70
2022/01/23 08:59:36;;;;;;;11.88;4.28;;;5.60;86.70;;;;;;5042510;28;20052;-69
2022/01/23 09:02:03;;;;;;;8.10;3.88;;;5.70;86.70;;;;;;5044307;28;20487;-69
2022/01/23 09:04:30;;;;;;;9.80;4.53;;;5.70;86.70;;;;;;5042784;28;20060;-70
2022/01/23 09:06:58;;;;;;;8.43;4.13;;;5.70;86.80;;;;;;5044141;28;20067;-68
2022/01/23 09:09:30;;;;;;;9.77;4.13;;;5.70;86.80;;;;;;5043486;28;20454;-69
2022/01/23 09:12:02;;;;;;;10.02;4.05;;;5.70;86.80;;;;;;5043359;28;20405;-69
2022/01/23 09:14:30;;;;;;;8.10;4.03;;;5.70;86.80;;;;;;5042656;28;20048;-68
2022/01/23 09:16:57;;;;;;;12.25;5.07;;;5.70;86.80;;;;;;5044674;28;20045;-70
2022/01/23 09:19:25;;;;;;;12.13;4.07;;;5.80;86.70;;;;;;5041814;28;20588;-69
2022/01/23 09:21:53;;;;;;;10.82;4.10;;;5.80;86.80;;;;;;5043734;28;20045;-69
2022/01/23 09:24:23;;;;;;;7.78;3.28;;;5.80;86.70;;;;;;5042726;28;20512;-70
2022/01/23 09:26:53;;;;;;;9.55;4.28;;;5.90;86.60;;;;;;5044886;28;20058;-69
2022/01/23 09:29:29;;;;;;;10.55;3.60;;;5.90;86.50;;;;;;5042522;28;20048;-70
2022/01/23 09:31:56;;;;;;;7.28;3.45;;;5.90;86.50;;;;;;5039667;28;20083;-69
2022/01/23 09:34:26;;;;;;;7.32;3.28;;;5.90;86.40;;;;;;5043911;28;20037;-68
2022/01/23 09:36:54;;;;;;;9.07;3.85;;;5.90;86.40;;;;;;5047166;28;20044;-70
2022/01/23 09:39:22;;;;;;;8.85;4.35;;;5.90;86.40;;;;;;5047590;28;20624;-69
2022/01/23 09:41:52;;;;;;;8.80;4.30;;;5.90;86.50;;;;;;5049873;28;21548;-70
2022/01/23 09:44:20;;;;;;;9.18;4.03;;;6.00;86.50;;;;;;5048315;28;20052;-69
2022/01/23 09:46:48;;;;;;;7.13;2.95;;;6.00;86.60;;;;;;5048929;28;20052;-68
2022/01/23 09:49:17;;;;;;;8.52;4.22;;;6.00;86.60;;;;;;5049727;28;20601;-68
2022/01/23 09:51:45;;;;;;;8.90;3.67;;;6.10;86.50;;;;;;5034421;28;20052;-69
2022/01/23 09:54:15;;;;;;;8.93;4.28;;;6.10;86.50;;;;;;5048645;28;20489;-69
2022/01/23 09:56:44;;;;;;;11.07;4.07;;;6.10;86.50;;;;;;5047855;28;20502;-68
2022/01/23 09:59:12;;;;;;;11.35;4.82;;;6.20;86.40;;;;;;5047041;28;20040;-69
2022/01/23 10:01:42;;;;;;;11.35;4.00;;;6.20;86.50;;;;;;3571720;28;10002883;-70
2022/01/23 10:04:10;;;;;;;9.10;4.63;;;6.20;86.50;;;;;;2773444;28;10002050;-69
2022/01/23 10:06:37;;;;;;;9.32;4.55;;;6.20;86.40;;;;;;5045618;28;20055;-68
2022/01/23 10:09:06;;;;;;;8.45;4.22;;;6.20;86.30;;;;;;5041242;28;20154;-69
2022/01/23 10:11:38;;;;;;;7.22;3.75;;;6.20;86.30;;;;;;5027144;28;20052;-69
2022/01/23 10:14:06;;;;;;;9.77;4.50;;;6.30;86.30;;;;;;5026102;28;20297;-68
2022/01/23 10:16:34;;;;;;;8.02;4.65;;;6.30;86.10;;;;;;5028252;28;20120;-69
2022/01/23 10:19:03;;;;;;;9.93;4.38;;;6.30;86.10;;;;;;5043619;28;20691;-70
2022/01/23 10:21:35;;;;;;;11.27;4.85;;;6.40;86.00;;;;;;5046357;28;20049;-69
2022/01/23 10:24:02;;;;;;;6.93;3.25;;;6.40;86.00;;;;;;5027165;28;20210;-69
2022/01/23 10:26:42;;;;;;;10.45;4.25;;;6.40;86.00;;;;;;5026638;28;20049;-69
2022/01/23 10:29:19;;;;;;;6.82;3.40;;;6.40;86.00;;;;;;5026905;28;21577;-69
2022/01/23 10:32:08;;;;;;;7.20;3.38;;;6.40;86.00;;;;;;5043775;28;20048;-69
2022/01/23 10:34:43;;;;;;;8.18;3.05;;;6.50;85.90;;;;;;5048817;28;20048;-69
2022/01/23 10:37:11;;;;;;;8.68;3.90;;;6.50;85.80;;;;;;5047647;28;20471;-68
2022/01/23 10:39:43;;;;;;;9.70;4.03;;;6.50;85.70;;;;;;5045142;28;20592;-69
2022/01/23 10:42:34;;;;;;;10.32;4.55;;;6.50;85.60;;;;;;5025565;28;20438;-68
2022/01/23 10:47:52;;;;;;;6.82;3.38;;;6.60;85.50;;;;;;5053562;28;20055;-70
2022/01/23 10:50:23;;;;;;;8.85;3.92;;;6.60;85.50;;;;;;5047782;28;20059;-69
2022/01/23 10:52:51;;;;;;;7.38;3.40;;;6.60;85.50;;;;;;5045395;28;20137;-70
2022/01/23 10:55:27;;;;;;;8.38;3.80;;;6.60;85.40;;;;;;5046020;28;20040;-69
2022/01/23 10:57:58;;;;;;;10.23;4.50;;;6.60;85.30;;;;;;5045120;28;20052;-69
2022/01/23 11:00:26;;;;;;;;;;;6.60;85.10;;;;;;5040471;28;20105;-69
2022/01/23 11:02:55;;;;;;;8.20;3.55;;;6.70;85.10;;;;;;5053230;28;19924;-69
2022/01/23 11:05:30;;;;;;;7.82;3.75;;;6.70;84.70;;;;;;5048819;28;20044;-68
2022/01/23 11:07:58;;;;;;;8.98;4.43;;;6.70;84.70;;;;;;5053001;28;20056;-69
2022/01/23 11:10:25;;;;;;;9.90;4.53;;;6.70;84.60;;;;;;5027662;28;20044;-69
2022/01/23 11:18:34;;;;;;;8.57;2.95;;;6.70;84.50;;;;;;5047287;28;20410;-70
2022/01/23 11:21:14;;;;;;;6.15;2.88;;;6.70;84.20;;;;;;5047024;28;20414;-70
2022/01/23 11:23:41;;;;;;;9.55;3.85;;;6.70;84.20;;;;;;5045982;28;20106;-69
2022/01/23 11:26:10;;;;;;;5.43;2.70;;;6.70;84.00;;;;;;5046478;28;20045;-69
2022/01/23 11:28:41;;;;;;;6.97;2.58;;;6.70;83.90;;;;;;5046275;28;20053;-70
2022/01/23 11:31:12;;;;;;;8.40;2.97;;;6.70;83.70;;;;;;5047609;28;20055;-69
2022/01/23 11:33:41;;;;;;;6.78;2.17;;;6.70;83.40;;;;;;5045385;28;20040;-69
2022/01/23 11:36:09;;;;;;;6.65;2.63;;;6.70;83.30;;;;;;5027507;28;20133;-70
2022/01/23 11:38:37;;;;;;;7.72;2.97;;;6.70;83.40;;;;;;5041870;28;20095;-71
2022/01/23 11:55:06;;;;;;;9.27;3.67;;;6.80;82.70;;;;;;5048384;28;20520;-69
2022/01/23 11:57:39;;;;;;;10.80;4.55;;;6.90;82.60;;;;;;5045202;28;20139;-70
2022/01/23 12:00:15;;;;;;;13.02;5.47;;;6.80;82.70;;;;;;5010368;28;21062;-70
2022/01/23 12:03:15;;;;;;;10.25;4.35;;;6.90;82.60;;;;;;3497334;28;10021428;-70
2022/01/23 12:05:44;;;;;;;8.30;3.58;;;6.90;82.30;;;;;;3309105;28;10001985;-70
2022/01/23 12:08:26;;;;;;;8.52;3.70;;;6.90;82.20;;;;;;5053672;28;21602;-69
2022/01/23 12:11:41;;;;;;;7.00;3.20;;;7.00;82.10;;;;;;5026941;28;20075;-70
2022/01/23 12:17:17;;;;;;;8.15;2.90;;;7.00;81.80;;;;;;5050720;28;20054;-69
2022/01/23 12:19:48;;;;;;;6.78;2.50;;;7.00;81.80;;;;;;5025797;28;20045;-70
2022/01/23 12:22:42;;;;;;;6.07;2.22;;;7.00;81.80;;;;;;5023107;28;20137;-70
2022/01/23 12:25:16;;;;;;;6.97;2.17;;;7.00;81.40;;;;;;5037346;28;20899;-69
2022/01/23 12:27:44;;;;;;;6.82;2.25;;;7.00;81.20;;;;;;5042954;28;20048;-69
2022/01/23 12:30:40;;;;;;;4.25;1.80;;;7.00;81.10;;;;;;5042943;28;20056;-68
2022/01/23 12:33:16;;;;;;;5.22;2.25;;;7.00;80.50;;;;;;5043602;28;20141;-68
2022/01/23 12:35:46;;;;;;;4.30;1.77;;;7.00;80.90;;;;;;5042966;28;20183;-70
2022/01/23 12:38:14;;;;;;;4.57;1.58;;;7.00;80.80;;;;;;5027934;28;20057;-70
2022/01/23 12:40:45;;;;;;;5.95;1.92;;;7.10;81.00;;;;;;5045687;28;20070;-70
2022/01/23 12:43:15;;;;;;;5.00;2.17;;;7.00;80.60;;;;;;5045640;28;20044;-68
2022/01/23 12:45:47;;;;;;;3.67;1.67;;;7.10;80.40;;;;;;5042619;28;20490;-70
2022/01/23 12:48:40;;;;;;;4.43;1.73;;;7.10;80.10;;;;;;5046333;28;20620;-70
2022/01/23 12:51:29;;;;;;;5.75;1.98;;;7.00;79.80;;;;;;5042355;28;20059;-68
2022/01/23 12:54:16;;;;;;;4.78;2.58;;;7.00;79.70;;;;;;5045233;28;20394;-67
2022/01/23 12:56:45;;;;;;;5.30;1.95;;;7.00;79.60;;;;;;5040343;28;20056;-69
2022/01/23 12:59:20;;;;;;;4.90;1.67;;;7.00;79.50;;;;;;5023604;28;20056;-70
2022/01/23 13:01:47;;;;;;;5.38;1.38;;;7.00;79.00;;;;;;5045147;28;20118;-68
2022/01/23 13:04:16;;;;;;;3.55;1.35;;;7.00;78.80;;;;;;5046527;28;20148;-69
2022/01/23 13:06:50;;;;;;;4.97;1.20;;;7.00;78.50;;;;;;5045081;28;21147;-69
2022/01/23 13:09:24;;;;;;;2.90;1.40;;;7.00;78.40;;;;;;5046882;28;20064;-70
2022/01/23 13:12:04;;;;;;;2.55;1.08;;;7.00;78.50;;;;;;5049294;28;20117;-68
2022/01/23 13:14:48;;;;;;;1.53;1.10;;;7.00;78.40;;;;;;5048093;28;20189;-69
2022/01/23 13:17:33;;;;;;;2.15;1.02;;;7.00;78.20;;;;;;5049724;28;20507;-68
2022/01/23 13:31:05;;;;;;;3.95;1.08;;;7.00;77.30;;;;;;5032065;28;20048;-69
2022/01/23 13:33:32;;;;;;;4.50;1.45;;;7.00;77.20;;;;;;5035667;28;20088;-69
2022/01/23 13:36:02;;;;;;;3.95;1.60;;;7.00;77.00;;;;;;5035996;28;20048;-69
2022/01/23 13:38:34;;;;;;;3.85;1.45;;;7.00;77.00;;;;;;5034482;28;20147;-68
2022/01/23 13:41:09;;;;;;;3.67;1.88;;;7.00;77.00;;;;;;5037527;28;20049;-69
2022/01/23 13:52:09;;;;;;;5.68;3.28;;;7.00;76.90;;;;;;5037234;28;19937;-69
2022/01/23 14:00:01;;;;;;;5.88;2.28;;;7.00;76.80;;;;;;5033229;28;20076;-70
2022/01/23 14:02:35;;;;;;;2.15;1.30;;;6.90;76.70;;;;;;3673436;28;10024365;-70
2022/01/23 14:05:08;;;;;;;2.80;1.42;;;7.00;76.90;;;;;;2089459;28;10002687;-70
2022/01/23 14:07:36;;;;;;;2.35;1.17;;;7.00;76.50;;;;;;5053141;28;20053;-69
2022/01/23 14:10:14;;;;;;;2.28;1.20;;;7.00;76.40;;;;;;5053458;28;21706;-69
2022/01/23 14:12:41;;;;;;;2.78;1.10;;;7.00;76.50;;;;;;5055178;28;20056;-70
2022/01/23 14:15:13;;;;;;;2.15;1.15;;;7.00;76.40;;;;;;5043737;28;20503;-69
2022/01/23 14:17:42;;;;;;;2.38;0.80;;;6.90;76.40;;;;;;5053018;28;20237;-69
2022/01/23 14:20:12;;;;;;;1.40;0.75;;;6.90;76.20;;;;;;5033276;28;20446;-70
2022/01/23 14:22:42;;;;;;;2.15;0.65;;;6.90;76.00;;;;;;5053467;28;20052;-70
2022/01/23 14:25:16;;;;;;;2.55;0.95;;;6.90;76.00;;;;;;5045780;28;20076;-69
2022/01/23 14:27:46;;;;;;;1.77;0.82;;;6.90;75.90;;;;;;5046125;28;20036;-69
2022/01/23 14:30:20;;;;;;;1.83;1.05;;;6.80;75.70;;;;;;5045468;28;20060;-72
2022/01/23 14:32:50;;;;;;;2.63;1.08;;;6.90;76.00;;;;;;5049006;28;20052;-70
2022/01/23 14:35:20;;;;;;;1.17;0.70;;;6.90;75.90;;;;;;5053393;28;20060;-70
2022/01/23 14:37:49;;;;;;;1.63;0.93;;;6.90;76.00;;;;;;5054725;28;20052;-69
2022/01/23 14:40:21;;;;;;;2.55;0.80;;;6.80;76.20;;;;;;5055001;28;20524;-69
2022/01/23 14:43:02;;;;;;;1.20;0.70;;;6.80;76.20;;;;;;5054604;28;20050;-69
2022/01/23 14:45:31;;;;;;;1.00;0.60;;;6.80;76.30;;;;;;5052129;28;20059;-68
2022/01/23 14:47:58;;;;;;;2.58;0.90;;;6.80;76.30;;;;;;5055809;28;20055;-69
2022/01/23 14:50:28;;;;;;;1.35;0.50;;;6.80;76.30;;;;;;5051190;28;20127;-69
2022/01/23 14:52:55;;;;;;;1.40;0.50;;;6.80;76.30;;;;;;5055136;28;20055;-69
2022/01/23 14:55:24;;;;;;;2.15;0.65;;;6.80;76.40;;;;;;5052272;28;20387;-67
2022/01/23 14:57:55;;;;;;;1.50;0.60;;;6.70;76.40;;;;;;5049636;28;20547;-68
2022/01/23 15:00:22;;;;;;;1.98;0.90;;;6.80;76.50;;;;;;5051951;28;20486;-70
2022/01/23 15:02:49;;;;;;;1.40;0.60;;;6.70;76.60;;;;;;5055833;28;20051;-69
2022/01/23 15:05:16;;;;;;;1.20;0.52;;;6.70;76.60;;;;;;5055781;28;20055;-68
2022/01/23 15:07:43;;;;;;;2.03;0.80;;;6.70;76.60;;;;;;5055409;28;20405;-68
2022/01/23 15:10:11;;;;;;;1.95;0.85;;;6.70;76.50;;;;;;5051479;28;20170;-69
2022/01/23 15:12:39;;;;;;;3.83;1.17;;;6.70;76.50;;;;;;5055440;28;20614;-69
2022/01/23 15:15:07;;;;;;;1.30;0.50;;;6.70;76.40;;;;;;5050724;28;20048;-70
2022/01/23 15:17:36;;;;;;;2.60;1.15;;;6.70;76.40;;;;;;5054100;28;20074;-69
2022/01/23 15:20:04;;;;;;;3.58;1.40;;;6.70;76.50;;;;;;5048963;28;20139;-68
2022/01/23 15:22:31;;;;;;;2.92;1.17;;;6.70;76.50;;;;;;5051184;28;20159;-70
2022/01/23 15:24:58;;;;;;;5.68;2.13;;;6.60;76.50;;;;;;5053682;28;20059;-70
2022/01/23 15:27:25;;;;;;;4.95;2.45;;;6.60;76.70;;;;;;5052611;28;20048;-69
2022/01/23 15:29:54;;;;;;;7.05;3.20;;;6.60;76.80;;;;;;5053688;28;20129;-69
2022/01/23 15:32:21;;;;;;;6.95;2.97;;;6.60;76.90;;;;;;5052210;28;20048;-70
2022/01/23 15:34:48;;;;;;;8.93;3.15;;;6.70;76.90;;;;;;5054120;28;20363;-70
2022/01/23 15:37:15;;;;;;;6.38;2.83;;;6.70;77.10;;;;;;5043258;28;20063;-69
2022/01/23 15:39:43;;;;;;;6.10;2.70;;;6.70;77.10;;;;;;5048328;28;20055;-70
2022/01/23 15:42:10;;;;;;;14.55;3.28;;;6.60;77.20;;;;;;5052900;28;21854;-72
2022/01/23 15:44:39;;;;;;;7.43;2.80;;;6.70;77.30;;;;;;5050674;28;20059;-70
2022/01/23 15:47:07;;;;;;;8.50;2.42;;;6.60;77.40;;;;;;5051744;28;20048;-70
2022/01/23 15:49:34;;;;;;;8.13;2.33;;;6.60;77.50;;;;;;5051661;28;20060;-69
2022/01/23 15:52:01;;;;;;;5.10;2.40;;;6.60;77.70;;;;;;5052731;28;20045;-70
2022/01/23 15:54:29;;;;;;;6.90;2.38;;;6.60;77.90;;;;;;5052223;28;20053;-70
2022/01/23 15:56:56;;;;;;;6.40;2.17;;;6.60;78.00;;;;;;5051714;28;20379;-69
2022/01/23 15:59:24;;;;;;;8.02;2.95;;;6.60;78.00;;;;;;5051871;28;20508;-68
2022/01/23 16:01:51;;;;;;;5.10;1.92;;;6.60;78.20;;;;;;5050495;28;20052;-69
2022/01/23 16:04:22;;;;;;;5.68;2.70;;;6.60;78.10;;;;;;5002254;28;20135;-70
2022/01/23 16:06:52;;;;;;;6.70;2.70;;;6.60;78.20;;;;;;354128;28;10023540;-68